Time;durP1;ratioP1;P1;durP2;ratioP2;P2;SDS_P1;SDS_P2;PMS_P1;PMS_P2;Temp;Humidity;BMP_temperature;BMP_pressure;BME280_temperature;BME280_humidity;BME280_pressure;Samples;Min_cycle;Max_cycle;Signal;HPM_P1;HPM_P2
2021/10/17 00:00:10;;;;;;;2.00;1.90;;;11.80;99.90;;;;;;5035588;28;20498;-84
2021/10/17 00:02:36;;;;;;;2.50;2.30;;;11.80;99.90;;;;;;5053461;28;20475;-85
2021/10/17 00:05:03;;;;;;;2.30;2.10;;;11.80;99.90;;;;;;5053392;28;20092;-85
2021/10/17 00:07:28;;;;;;;3.95;2.40;;;11.80;99.90;;;;;;5035494;28;20369;-85
2021/10/17 00:09:54;;;;;;;2.70;2.47;;;11.70;99.90;;;;;;5053290;28;20032;-84
2021/10/17 00:12:20;;;;;;;2.63;2.40;;;11.80;99.90;;;;;;5053024;28;20045;-85
2021/10/17 00:14:46;;;;;;;2.97;2.55;;;11.80;99.90;;;;;;5053092;28;20060;-86
2021/10/17 00:17:12;;;;;;;3.85;2.42;;;11.80;99.90;;;;;;5053248;28;20099;-85
2021/10/17 00:19:37;;;;;;;2.30;2.20;;;11.80;99.90;;;;;;5053116;28;20375;-86
2021/10/17 00:22:03;;;;;;;3.72;2.65;;;11.80;99.90;;;;;;5052987;28;20037;-84
2021/10/17 00:24:30;;;;;;;2.55;2.45;;;11.80;99.90;;;;;;5053117;28;20079;-86
2021/10/17 00:26:59;;;;;;;3.00;2.55;;;11.70;99.90;;;;;;5052895;28;20544;-85
2021/10/17 00:29:24;;;;;;;3.00;2.80;;;11.70;99.90;;;;;;5052907;28;20032;-84
2021/10/17 00:31:50;;;;;;;4.85;2.60;;;11.70;99.90;;;;;;5052867;28;20025;-84
2021/10/17 00:34:17;;;;;;;3.83;2.20;;;11.80;99.90;;;;;;5051468;28;20070;-85
2021/10/17 00:36:43;;;;;;;4.07;2.25;;;11.70;99.90;;;;;;5052801;28;20025;-85
2021/10/17 00:39:08;;;;;;;2.90;2.60;;;11.80;99.90;;;;;;5041091;28;20021;-85
2021/10/17 00:41:34;;;;;;;3.08;2.78;;;11.80;99.90;;;;;;5051907;28;20029;-85
2021/10/17 00:44:03;;;;;;;3.28;2.65;;;11.80;99.90;;;;;;5052211;28;20025;-84
2021/10/17 00:46:29;;;;;;;2.80;2.60;;;11.70;99.90;;;;;;5037143;28;20029;-84
2021/10/17 00:48:55;;;;;;;3.20;2.63;;;11.80;99.90;;;;;;5052517;28;20425;-85
2021/10/17 00:51:21;;;;;;;3.92;2.90;;;11.80;99.90;;;;;;5052343;28;20390;-85
2021/10/17 00:53:47;;;;;;;4.28;3.08;;;11.80;99.90;;;;;;5052311;28;20052;-84
2021/10/17 00:56:13;;;;;;;4.22;2.95;;;11.80;99.90;;;;;;5052259;28;20086;-84
2021/10/17 00:58:39;;;;;;;2.90;2.45;;;11.70;99.90;;;;;;5052278;28;20060;-85
2021/10/17 01:01:05;;;;;;;3.28;2.88;;;11.70;99.90;;;;;;5034468;28;20025;-85
2021/10/17 01:03:33;;;;;;;3.28;2.95;;;11.70;99.90;;;;;;5052237;28;20036;-85
2021/10/17 01:05:59;;;;;;;2.92;2.65;;;11.70;99.90;;;;;;5034230;28;20395;-85
2021/10/17 01:08:25;;;;;;;3.10;2.80;;;11.70;99.90;;;;;;5052140;28;20032;-85
2021/10/17 01:10:56;;;;;;;3.38;3.08;;;11.70;99.90;;;;;;5034430;28;20115;-85
2021/10/17 01:13:24;;;;;;;4.00;3.15;;;11.70;99.90;;;;;;5052218;28;20040;-85
2021/10/17 01:15:55;;;;;;;3.10;2.80;;;11.70;99.90;;;;;;5051979;28;20031;-84
2021/10/17 01:18:23;;;;;;;3.72;3.25;;;11.60;99.90;;;;;;5051899;28;20036;-85
2021/10/17 01:20:49;;;;;;;4.05;3.15;;;11.60;99.90;;;;;;5051897;28;20590;-85
2021/10/17 01:23:17;;;;;;;4.68;3.03;;;11.60;99.90;;;;;;5051848;28;20028;-84
2021/10/17 01:25:43;;;;;;;3.08;2.85;;;11.60;99.90;;;;;;5052061;28;20052;-85
2021/10/17 01:28:09;;;;;;;3.30;3.00;;;11.60;99.90;;;;;;5051963;28;20029;-84
2021/10/17 01:30:35;;;;;;;4.05;3.20;;;11.60;99.90;;;;;;5043721;28;20048;-84
2021/10/17 01:33:01;;;;;;;4.90;3.90;;;11.60;99.90;;;;;;5031957;28;20033;-84
2021/10/17 01:35:26;;;;;;;3.88;3.17;;;11.60;99.90;;;;;;5031699;28;20032;-85
2021/10/17 01:37:52;;;;;;;4.10;3.45;;;11.50;99.90;;;;;;5035325;28;20025;-84
2021/10/17 01:40:19;;;;;;;4.22;3.03;;;11.60;99.90;;;;;;5051671;28;20028;-85
2021/10/17 01:42:47;;;;;;;4.72;3.30;;;11.60;99.90;;;;;;5051483;28;20025;-84
2021/10/17 01:45:13;;;;;;;4.05;3.30;;;11.50;99.90;;;;;;5051650;28;20426;-84
2021/10/17 01:47:51;;;;;;;3.95;3.28;;;11.50;99.90;;;;;;5051901;28;20042;-85
2021/10/17 01:50:17;;;;;;;4.28;2.80;;;11.50;99.90;;;;;;5051544;28;20013;-85
2021/10/17 01:52:43;;;;;;;5.57;3.40;;;11.50;99.90;;;;;;5051179;28;20029;-84
2021/10/17 01:55:09;;;;;;;5.10;3.47;;;11.50;99.90;;;;;;5051458;28;20025;-85
2021/10/17 01:57:35;;;;;;;3.47;3.17;;;11.50;99.90;;;;;;5033479;28;20017;-85
2021/10/17 02:00:02;;;;;;;3.47;3.17;;;11.50;99.90;;;;;;5051633;28;20025;-85
2021/10/17 02:02:28;;;;;;;5.47;3.63;;;11.50;99.90;;;;;;5051171;28;20079;-85
2021/10/17 02:04:53;;;;;;;3.33;3.03;;;11.50;99.90;;;;;;5051484;28;20025;-85
2021/10/17 02:07:19;;;;;;;4.75;3.00;;;11.50;99.90;;;;;;5051341;28;20036;-84
2021/10/17 02:09:45;;;;;;;4.50;3.38;;;11.50;99.90;;;;;;5051323;28;20036;-85
2021/10/17 02:12:11;;;;;;;4.07;3.60;;;11.50;99.90;;;;;;5051015;28;20072;-85
2021/10/17 02:14:37;;;;;;;5.20;3.67;;;11.50;99.90;;;;;;5051382;28;20378;-84
2021/10/17 02:17:05;;;;;;;3.63;3.00;;;11.50;99.90;;;;;;5051526;28;20104;-84
2021/10/17 02:19:31;;;;;;;5.13;3.45;;;11.50;99.90;;;;;;5051447;28;20025;-76
2021/10/17 02:21:57;;;;;;;4.05;3.47;;;11.50;99.90;;;;;;5050989;28;20027;-75
2021/10/17 02:24:23;;;;;;;5.70;3.65;;;11.50;99.90;;;;;;5050968;28;20031;-75
2021/10/17 02:26:49;;;;;;;4.03;3.63;;;11.50;99.90;;;;;;5049835;28;20453;-75
2021/10/17 02:29:17;;;;;;;5.10;3.75;;;11.50;99.90;;;;;;5051023;28;20013;-76
2021/10/17 02:31:43;;;;;;;3.92;3.58;;;11.50;99.90;;;;;;5051123;28;20100;-75
2021/10/17 02:34:09;;;;;;;5.78;4.00;;;11.50;99.90;;;;;;5050913;28;20478;-75
2021/10/17 02:36:34;;;;;;;6.03;3.85;;;11.40;99.90;;;;;;5051078;28;20021;-75
2021/10/17 02:39:00;;;;;;;4.88;3.78;;;11.40;99.90;;;;;;5049677;28;20067;-75
2021/10/17 02:41:26;;;;;;;4.80;3.85;;;11.40;99.90;;;;;;5050713;28;20032;-75
2021/10/17 02:43:51;;;;;;;5.18;3.60;;;11.50;99.90;;;;;;5049557;28;20113;-75
2021/10/17 02:46:17;;;;;;;5.43;3.72;;;11.40;99.90;;;;;;5063564;28;20490;-75
2021/10/17 02:48:43;;;;;;;10.07;3.78;;;11.40;99.90;;;;;;5070947;28;20032;-75
2021/10/17 02:51:09;;;;;;;5.35;3.95;;;11.40;99.90;;;;;;5070961;28;20036;-75
2021/10/17 02:53:35;;;;;;;6.13;3.47;;;11.30;99.90;;;;;;5053027;28;20025;-75
2021/10/17 02:56:01;;;;;;;6.78;3.72;;;11.30;99.90;;;;;;5052802;28;20506;-75
2021/10/17 02:58:27;;;;;;;5.28;3.83;;;11.30;99.90;;;;;;5070783;28;20028;-76
2021/10/17 03:00:52;;;;;;;5.82;3.75;;;11.30;99.90;;;;;;5052822;28;20024;-76
2021/10/17 03:03:18;;;;;;;6.70;3.70;;;11.30;99.90;;;;;;5070811;28;20099;-75
2021/10/17 03:05:45;;;;;;;6.72;4.00;;;11.40;99.90;;;;;;5054321;28;20016;-75
2021/10/17 03:08:10;;;;;;;6.28;4.25;;;11.30;99.90;;;;;;5068313;28;20021;-75
2021/10/17 03:10:36;;;;;;;6.53;4.35;;;11.40;99.90;;;;;;5054210;28;20032;-75
2021/10/17 03:13:02;;;;;;;4.15;3.67;;;11.30;99.90;;;;;;5052712;28;20388;-75
2021/10/17 03:15:28;;;;;;;4.60;4.15;;;11.30;99.90;;;;;;5054201;28;20025;-75
2021/10/17 03:17:54;;;;;;;5.97;4.07;;;11.30;99.90;;;;;;5054311;28;20078;-75
2021/10/17 03:20:21;;;;;;;6.70;3.88;;;11.30;99.90;;;;;;5052891;28;20120;-76
2021/10/17 03:22:47;;;;;;;5.90;4.20;;;11.30;99.90;;;;;;5050892;28;20124;-75
2021/10/17 03:25:13;;;;;;;5.55;3.85;;;11.30;99.90;;;;;;5054015;28;20036;-76
2021/10/17 03:27:38;;;;;;;4.72;4.32;;;11.20;99.90;;;;;;5035978;28;20120;-75
2021/10/17 03:30:06;;;;;;;6.53;4.70;;;11.20;99.90;;;;;;5053981;28;20098;-75
2021/10/17 03:32:31;;;;;;;5.20;4.20;;;11.20;99.90;;;;;;5053633;28;20025;-76
2021/10/17 03:34:57;;;;;;;6.60;4.28;;;11.20;99.90;;;;;;5053892;28;20391;-75
2021/10/17 03:37:23;;;;;;;4.68;4.15;;;11.20;99.90;;;;;;5053815;28;20025;-75
2021/10/17 03:39:49;;;;;;;6.38;4.35;;;11.20;99.90;;;;;;5053408;28;20307;-75
2021/10/17 03:42:15;;;;;;;5.97;4.05;;;11.20;99.90;;;;;;5053652;28;20502;-75
2021/10/17 03:44:40;;;;;;;5.05;3.67;;;11.20;99.90;;;;;;5053460;28;20029;-75
2021/10/17 03:47:06;;;;;;;4.20;3.78;;;11.20;99.90;;;;;;5035721;28;20375;-75
2021/10/17 03:49:32;;;;;;;6.28;4.35;;;11.30;99.90;;;;;;5053413;28;20033;-75
2021/10/17 03:51:57;;;;;;;7.85;4.10;;;11.30;99.90;;;;;;5053160;28;20128;-75
2021/10/17 03:54:23;;;;;;;7.93;4.30;;;11.30;99.90;;;;;;5053512;28;20094;-75
2021/10/17 03:56:49;;;;;;;7.00;4.53;;;11.30;99.90;;;;;;5053286;28;20387;-75
2021/10/17 03:59:17;;;;;;;6.32;4.22;;;11.30;99.90;;;;;;5053337;28;20550;-75
2021/10/17 04:01:46;;;;;;;7.43;4.95;;;11.30;99.90;;;;;;5053107;28;20032;-75
2021/10/17 04:04:12;;;;;;;7.95;3.78;;;11.30;99.90;;;;;;5035349;28;20029;-76
2021/10/17 04:06:38;;;;;;;5.40;4.30;;;11.30;99.90;;;;;;5053015;28;20104;-75
2021/10/17 04:09:04;;;;;;;6.22;4.22;;;11.20;99.90;;;;;;5053063;28;20478;-76
2021/10/17 04:11:30;;;;;;;5.78;4.28;;;11.20;99.90;;;;;;5035065;28;20114;-75
2021/10/17 04:13:55;;;;;;;7.22;4.20;;;11.20;99.90;;;;;;5053082;28;20034;-75
2021/10/17 04:16:21;;;;;;;5.03;4.53;;;11.20;99.90;;;;;;5034782;28;20386;-75
2021/10/17 04:18:47;;;;;;;7.43;3.90;;;11.20;99.90;;;;;;5052926;28;20029;-75
2021/10/17 04:21:12;;;;;;;5.15;4.18;;;11.20;99.90;;;;;;5052909;28;20057;-75
2021/10/17 04:23:38;;;;;;;9.07;4.53;;;11.20;99.90;;;;;;5052792;28;20021;-75
2021/10/17 04:26:04;;;;;;;6.60;4.40;;;11.20;99.90;;;;;;5052837;28;20025;-75
2021/10/17 04:28:30;;;;;;;5.75;4.32;;;11.10;99.90;;;;;;5052810;28;20025;-75
2021/10/17 04:30:55;;;;;;;7.38;4.95;;;11.10;99.90;;;;;;5052860;28;20387;-75
2021/10/17 04:33:21;;;;;;;5.82;4.28;;;11.10;99.90;;;;;;5052500;28;20485;-75
2021/10/17 04:35:47;;;;;;;7.05;4.60;;;11.10;99.90;;;;;;5034839;28;20099;-76
2021/10/17 04:38:14;;;;;;;6.95;4.38;;;11.20;99.90;;;;;;5052474;28;20035;-75
2021/10/17 04:40:41;;;;;;;5.40;4.20;;;11.20;99.90;;;;;;5052544;28;20074;-75
2021/10/17 04:43:07;;;;;;;7.88;4.35;;;11.20;99.90;;;;;;5052311;28;20021;-76
2021/10/17 04:45:37;;;;;;;5.50;4.60;;;11.10;99.90;;;;;;5052584;28;20009;-75
2021/10/17 04:48:03;;;;;;;7.18;4.65;;;11.10;99.90;;;;;;5053950;28;20059;-76
2021/10/17 04:50:29;;;;;;;6.15;4.57;;;11.00;99.90;;;;;;5052987;28;20032;-75
2021/10/17 04:52:55;;;;;;;6.82;4.47;;;11.00;99.90;;;;;;5052334;28;20456;-75
2021/10/17 04:55:20;;;;;;;5.40;4.45;;;11.10;99.90;;;;;;5052360;28;20433;-75
2021/10/17 04:57:46;;;;;;;5.50;4.38;;;11.10;99.90;;;;;;5034409;28;20036;-75
2021/10/17 05:00:12;;;;;;;6.43;4.47;;;11.10;99.90;;;;;;5052212;28;20033;-75
2021/10/17 05:02:38;;;;;;;5.47;4.07;;;11.10;99.90;;;;;;5034154;28;20070;-76
2021/10/17 05:05:07;;;;;;;6.10;4.10;;;11.00;99.90;;;;;;5051912;28;20029;-76
2021/10/17 05:07:33;;;;;;;6.07;4.57;;;11.00;99.90;;;;;;5034151;28;20029;-75
2021/10/17 05:09:58;;;;;;;5.35;4.57;;;11.10;99.90;;;;;;5052076;28;20108;-75
2021/10/17 05:12:24;;;;;;;7.97;5.05;;;11.00;99.90;;;;;;5051828;28;20132;-76
2021/10/17 05:14:50;;;;;;;4.95;4.20;;;10.90;99.90;;;;;;5051819;28;20048;-75
2021/10/17 05:17:16;;;;;;;4.68;3.97;;;10.90;99.90;;;;;;5051893;28;20021;-75
2021/10/17 05:19:42;;;;;;;5.97;4.45;;;10.80;99.90;;;;;;5051682;28;20502;-76
2021/10/17 05:22:08;;;;;;;6.53;4.65;;;10.80;99.90;;;;;;5051875;28;20022;-75
2021/10/17 05:24:33;;;;;;;7.63;5.18;;;10.80;99.90;;;;;;5051739;28;20025;-75
2021/10/17 05:26:59;;;;;;;7.47;4.38;;;10.90;99.90;;;;;;5050491;28;20052;-75
2021/10/17 05:29:25;;;;;;;7.68;4.68;;;10.90;99.90;;;;;;5047922;28;20098;-75
2021/10/17 05:31:50;;;;;;;4.93;4.00;;;10.80;99.90;;;;;;5051585;28;20017;-75
2021/10/17 05:34:16;;;;;;;6.25;4.68;;;10.80;99.90;;;;;;5051647;28;20049;-75
2021/10/17 05:36:42;;;;;;;5.80;4.43;;;10.90;99.90;;;;;;5033644;28;20115;-75
2021/10/17 05:39:09;;;;;;;9.50;4.72;;;10.90;99.90;;;;;;5051560;28;20017;-75
2021/10/17 05:41:35;;;;;;;6.22;4.35;;;10.90;99.90;;;;;;5033396;28;20150;-75
2021/10/17 05:44:02;;;;;;;10.63;4.90;;;10.90;99.90;;;;;;5050968;28;20514;-75
2021/10/17 05:46:27;;;;;;;7.88;5.03;;;10.90;99.90;;;;;;5033588;28;20025;-75
2021/10/17 05:48:53;;;;;;;7.57;5.32;;;10.90;99.90;;;;;;5033630;28;20048;-75
2021/10/17 05:51:19;;;;;;;7.85;5.28;;;10.90;99.90;;;;;;5051471;28;20025;-75
2021/10/17 05:53:45;;;;;;;5.90;4.32;;;10.80;99.90;;;;;;5051159;28;20032;-75
2021/10/17 05:56:10;;;;;;;7.30;5.10;;;10.80;99.90;;;;;;5051449;28;20487;-75
2021/10/17 05:58:36;;;;;;;7.45;5.10;;;10.70;99.90;;;;;;5051275;28;20021;-75
2021/10/17 06:01:02;;;;;;;7.10;5.20;;;10.70;99.90;;;;;;5051381;28;20083;-75
2021/10/17 06:03:28;;;;;;;6.03;4.30;;;10.70;99.90;;;;;;5033170;28;20025;-75
2021/10/17 06:06:00;;;;;;;6.53;5.15;;;10.70;99.90;;;;;;5051220;28;20044;-75
2021/10/17 06:08:26;;;;;;;7.30;4.95;;;10.70;99.90;;;;;;5051228;28;20020;-75
2021/10/17 06:10:53;;;;;;;6.78;4.85;;;10.70;99.90;;;;;;5033380;28;20029;-74
2021/10/17 06:13:18;;;;;;;5.38;4.35;;;10.80;99.90;;;;;;5050970;28;20045;-75
2021/10/17 06:15:44;;;;;;;7.35;4.70;;;10.80;99.90;;;;;;5033347;28;20075;-74
2021/10/17 06:18:10;;;;;;;7.07;4.65;;;10.80;99.90;;;;;;5051155;28;20169;-75
2021/10/17 06:20:35;;;;;;;6.95;5.13;;;10.80;99.90;;;;;;5051118;28;20031;-75
2021/10/17 06:23:01;;;;;;;6.57;4.93;;;10.80;99.90;;;;;;5050931;28;20398;-75
2021/10/17 06:25:27;;;;;;;6.68;5.05;;;10.90;99.90;;;;;;5033377;28;20059;-75
2021/10/17 06:27:52;;;;;;;7.72;5.43;;;10.90;99.90;;;;;;5051166;28;20447;-75
2021/10/17 06:30:21;;;;;;;8.50;5.38;;;10.90;99.90;;;;;;5051098;28;20033;-75
2021/10/17 06:32:50;;;;;;;8.07;4.80;;;11.00;99.90;;;;;;5050869;28;20036;-75
2021/10/17 06:35:16;;;;;;;5.68;4.47;;;11.00;99.90;;;;;;5051131;28;20540;-75
2021/10/17 06:37:41;;;;;;;7.28;5.00;;;11.00;99.90;;;;;;5050969;28;20104;-74
2021/10/17 06:40:08;;;;;;;6.72;5.35;;;11.10;99.90;;;;;;5035241;28;20064;-75
2021/10/17 06:42:34;;;;;;;6.53;5.00;;;11.10;99.90;;;;;;5054671;28;20422;-75
2021/10/17 06:44:59;;;;;;;7.03;5.05;;;11.10;99.90;;;;;;5054533;28;20025;-74
2021/10/17 06:47:25;;;;;;;7.90;5.32;;;11.10;99.90;;;;;;5054576;28;20021;-75
2021/10/17 06:49:51;;;;;;;7.18;5.15;;;11.10;99.90;;;;;;5057254;28;20090;-75
2021/10/17 06:52:17;;;;;;;6.60;4.50;;;11.20;99.90;;;;;;5036683;28;20063;-75
2021/10/17 06:54:42;;;;;;;5.30;4.40;;;11.20;99.90;;;;;;5036654;28;20032;-75
2021/10/17 06:57:08;;;;;;;6.47;4.65;;;11.20;99.90;;;;;;5054261;28;20028;-75
2021/10/17 06:59:34;;;;;;;7.28;4.85;;;11.30;99.90;;;;;;5053867;28;20486;-75
2021/10/17 07:02:00;;;;;;;9.02;5.25;;;11.30;99.90;;;;;;5035698;28;20025;-75
2021/10/17 07:04:25;;;;;;;8.52;5.15;;;11.40;99.90;;;;;;5054414;28;20386;-75
2021/10/17 07:06:51;;;;;;;8.40;5.20;;;11.40;99.90;;;;;;5054347;28;20025;-74
2021/10/17 07:09:17;;;;;;;7.85;4.90;;;11.50;99.90;;;;;;5036348;28;20391;-74
2021/10/17 07:11:43;;;;;;;6.72;4.75;;;11.50;99.90;;;;;;5035906;28;20136;-75
2021/10/17 07:14:09;;;;;;;10.77;4.60;;;11.60;99.90;;;;;;5054077;28;20025;-75
2021/10/17 07:16:35;;;;;;;10.25;4.93;;;11.70;99.90;;;;;;5036225;28;20569;-75
2021/10/17 07:19:01;;;;;;;7.47;4.82;;;11.70;99.90;;;;;;5053996;28;20057;-75
2021/10/17 07:21:26;;;;;;;6.72;4.78;;;11.70;99.90;;;;;;5053458;28;20045;-74
2021/10/17 07:23:52;;;;;;;7.65;4.65;;;11.80;99.90;;;;;;5052025;28;20026;-75
2021/10/17 07:26:18;;;;;;;8.52;4.85;;;11.80;99.90;;;;;;5035144;28;20131;-75
2021/10/17 07:28:44;;;;;;;7.40;5.18;;;11.90;99.90;;;;;;5053919;28;20504;-75
2021/10/17 07:31:10;;;;;;;7.60;5.00;;;12.00;99.90;;;;;;5053906;28;20064;-75
2021/10/17 07:33:37;;;;;;;5.13;4.50;;;12.00;99.90;;;;;;5053279;28;20036;-75
2021/10/17 07:36:03;;;;;;;4.75;4.25;;;12.00;99.90;;;;;;5035615;28;20032;-75
2021/10/17 07:38:29;;;;;;;6.97;4.55;;;12.10;99.90;;;;;;5053518;28;20033;-75
2021/10/17 07:40:56;;;;;;;6.90;4.63;;;12.20;99.90;;;;;;5035958;28;20537;-75
2021/10/17 07:43:22;;;;;;;6.88;4.80;;;12.20;99.90;;;;;;5035704;28;20029;-75
2021/10/17 07:45:49;;;;;;;6.13;4.40;;;12.30;99.90;;;;;;5053670;28;20036;-75
2021/10/17 07:48:14;;;;;;;9.18;5.05;;;12.30;99.90;;;;;;5035027;28;20017;-75
2021/10/17 07:50:40;;;;;;;9.45;4.40;;;12.40;99.90;;;;;;5035023;28;20024;-75
2021/10/17 07:53:06;;;;;;;5.35;3.95;;;12.50;99.90;;;;;;5053371;28;20103;-75
2021/10/17 07:55:32;;;;;;;8.85;4.22;;;12.50;99.90;;;;;;5053413;28;20037;-75
2021/10/17 07:57:58;;;;;;;6.22;4.05;;;12.50;99.90;;;;;;5034592;28;20043;-75
2021/10/17 08:00:26;;;;;;;6.03;4.03;;;12.60;99.90;;;;;;5052804;28;20550;-75
2021/10/17 08:02:52;;;;;;;6.53;3.80;;;12.60;99.90;;;;;;5052563;28;20025;-74
2021/10/17 08:05:18;;;;;;;6.32;4.15;;;12.60;99.90;;;;;;5035083;28;20028;-75
2021/10/17 08:07:45;;;;;;;6.10;4.30;;;12.60;99.90;;;;;;5052649;28;20028;-75
2021/10/17 08:10:11;;;;;;;5.82;4.25;;;12.70;99.90;;;;;;5037684;28;20058;-75
2021/10/17 08:12:38;;;;;;;5.00;3.85;;;12.80;99.90;;;;;;5055833;28;20045;-75
2021/10/17 08:15:05;;;;;;;4.82;3.80;;;12.80;99.90;;;;;;5046247;28;20267;-75
2021/10/17 08:17:31;;;;;;;4.55;3.90;;;12.90;99.90;;;;;;5053269;28;20025;-75
2021/10/17 08:19:57;;;;;;;4.53;3.95;;;13.00;99.90;;;;;;5037183;28;20403;-75
2021/10/17 08:22:23;;;;;;;6.15;3.95;;;13.10;99.90;;;;;;5051198;28;20542;-84
2021/10/17 08:24:51;;;;;;;7.47;4.20;;;13.20;99.90;;;;;;5049873;28;20079;-75
2021/10/17 08:27:17;;;;;;;4.90;3.95;;;13.20;99.90;;;;;;5050856;28;20027;-75
2021/10/17 08:29:43;;;;;;;5.55;4.00;;;13.20;99.90;;;;;;5033397;28;20029;-75
2021/10/17 08:32:09;;;;;;;4.80;4.00;;;13.30;99.90;;;;;;5051019;28;20032;-75
2021/10/17 08:34:35;;;;;;;6.38;3.92;;;13.40;99.90;;;;;;5051633;28;20025;-75
2021/10/17 08:37:01;;;;;;;4.50;3.83;;;13.50;99.90;;;;;;5031720;28;20359;-75
2021/10/17 08:39:27;;;;;;;6.90;4.25;;;13.50;99.90;;;;;;5051217;28;20550;-75
2021/10/17 08:41:53;;;;;;;6.88;4.45;;;13.50;99.90;;;;;;5053815;28;20151;-75
2021/10/17 08:44:18;;;;;;;6.47;4.95;;;13.60;99.90;;;;;;5034000;28;20095;-75
2021/10/17 08:46:44;;;;;;;10.05;5.35;;;13.60;99.90;;;;;;5049870;28;20025;-75
2021/10/17 08:49:11;;;;;;;10.98;4.82;;;13.70;99.90;;;;;;5031895;28;20474;-75
2021/10/17 08:51:37;;;;;;;8.20;5.25;;;13.70;99.90;;;;;;5051197;28;20036;-75
2021/10/17 08:54:04;;;;;;;8.07;4.93;;;13.70;99.90;;;;;;5052312;28;20028;-75
2021/10/17 08:56:30;;;;;;;8.23;4.70;;;13.80;99.90;;;;;;5051934;28;20040;-75
2021/10/17 08:58:56;;;;;;;8.60;4.75;;;13.80;99.90;;;;;;5056442;28;20027;-75
2021/10/17 09:01:22;;;;;;;6.18;4.07;;;13.80;99.90;;;;;;5038566;28;20040;-75
2021/10/17 09:04:01;;;;;;;9.73;5.18;;;13.80;99.90;;;;;;5050394;28;20025;-75
2021/10/17 09:06:29;;;;;;;6.53;4.22;;;13.80;99.90;;;;;;5051675;28;20024;-75
2021/10/17 09:09:07;;;;;;;9.43;5.15;;;13.90;99.90;;;;;;5033775;28;20474;-75
2021/10/17 09:11:42;;;;;;;6.72;4.60;;;13.80;99.90;;;;;;5038992;28;20048;-75
2021/10/17 09:14:28;;;;;;;9.82;5.30;;;13.90;99.90;;;;;;5053271;28;20029;-75
2021/10/17 09:16:57;;;;;;;7.65;4.63;;;14.00;99.90;;;;;;5051297;28;20443;-75
2021/10/17 09:19:28;;;;;;;4.88;4.32;;;14.00;99.90;;;;;;5033233;28;20029;-75
2021/10/17 09:22:07;;;;;;;5.97;4.73;;;14.10;99.90;;;;;;5051098;28;20429;-75
2021/10/17 09:24:34;;;;;;;8.70;5.00;;;14.00;99.90;;;;;;5031163;28;20021;-75
2021/10/17 09:27:14;;;;;;;7.57;4.80;;;14.20;99.90;;;;;;5051006;28;20025;-75
2021/10/17 09:29:52;;;;;;;8.45;4.53;;;14.40;99.90;;;;;;5051720;28;20025;-75
2021/10/17 09:32:28;;;;;;;7.28;5.13;;;14.30;99.90;;;;;;5051637;28;20387;-75
2021/10/17 09:34:55;;;;;;;8.30;5.35;;;14.50;99.90;;;;;;5033808;28;20098;-75
2021/10/17 09:37:41;;;;;;;9.48;4.53;;;14.50;99.90;;;;;;5032313;28;20152;-75
2021/10/17 09:40:19;;;;;;;6.50;4.82;;;14.50;99.90;;;;;;5048407;28;20385;-75
2021/10/17 09:43:03;;;;;;;9.52;4.72;;;14.50;99.90;;;;;;5030934;28;20066;-75
2021/10/17 09:45:29;;;;;;;7.20;5.30;;;14.50;99.90;;;;;;5030335;28;20019;-75
2021/10/17 09:47:56;;;;;;;6.03;4.85;;;14.50;99.90;;;;;;5031731;28;20021;-75
2021/10/17 09:50:23;;;;;;;6.10;4.65;;;14.50;99.90;;;;;;5031528;28;20040;-75
2021/10/17 09:52:56;;;;;;;5.90;4.78;;;14.50;99.90;;;;;;5048734;28;20032;-75
2021/10/17 09:55:22;;;;;;;7.18;4.50;;;14.50;99.90;;;;;;5031987;28;20036;-74
2021/10/17 09:57:48;;;;;;;6.18;4.97;;;14.50;99.90;;;;;;5031563;28;20065;-75
2021/10/17 10:00:14;;;;;;;4.63;4.20;;;14.60;99.90;;;;;;5050135;28;20423;-75
2021/10/17 10:02:47;;;;;;;6.32;4.57;;;14.70;99.90;;;;;;5032030;28;20076;-75
2021/10/17 10:05:16;;;;;;;6.93;4.50;;;14.80;99.90;;;;;;5047305;28;20079;-74
2021/10/17 10:07:44;;;;;;;7.18;4.82;;;14.90;99.30;;;;;;5049147;28;20056;-74
2021/10/17 10:10:10;;;;;;;6.95;4.93;;;14.80;99.90;;;;;;5048451;28;20056;-75
2021/10/17 10:12:38;;;;;;;6.75;5.25;;;14.90;99.90;;;;;;5030781;28;20485;-75
2021/10/17 10:15:06;;;;;;;6.97;5.53;;;15.00;99.90;;;;;;5051132;28;20119;-74
2021/10/17 10:17:33;;;;;;;7.88;4.80;;;15.10;99.80;;;;;;5053125;28;20024;-74
2021/10/17 10:19:59;;;;;;;6.38;5.22;;;15.10;99.60;;;;;;5053498;28;20028;-74
2021/10/17 10:22:28;;;;;;;7.18;5.05;;;15.00;99.90;;;;;;5053267;28;20033;-75
2021/10/17 10:24:55;;;;;;;8.80;5.10;;;15.20;99.90;;;;;;5053313;28;20108;-84
2021/10/17 10:27:22;;;;;;;9.25;4.82;;;15.20;99.90;;;;;;5056520;28;20016;-76
2021/10/17 10:29:48;;;;;;;6.38;4.72;;;15.20;99.90;;;;;;5053671;28;20490;-75
2021/10/17 10:32:25;;;;;;;6.05;5.20;;;15.20;99.90;;;;;;5054086;28;20023;-75
2021/10/17 10:34:52;;;;;;;7.53;5.20;;;15.30;99.90;;;;;;5053941;28;20400;-75
2021/10/17 10:37:19;;;;;;;7.50;4.82;;;15.20;99.90;;;;;;5038095;28;20017;-84
2021/10/17 10:40:00;;;;;;;8.55;4.57;;;15.30;99.90;;;;;;5055985;28;20051;-84
2021/10/17 10:42:44;;;;;;;7.55;5.07;;;15.30;99.90;;;;;;5054482;28;20024;-75
2021/10/17 10:45:18;;;;;;;4.72;3.50;;;15.40;99.90;;;;;;5036832;28;20501;-75
2021/10/17 10:47:44;;;;;;;5.07;3.60;;;15.50;98.10;;;;;;5053711;28;20052;-75
2021/10/17 10:50:12;;;;;;;4.32;3.30;;;15.60;96.30;;;;;;5051871;28;20059;-75
2021/10/17 10:52:42;;;;;;;5.82;3.60;;;15.70;95.70;;;;;;5051564;28;20030;-75
2021/10/17 10:55:09;;;;;;;2.83;2.60;;;15.60;96.50;;;;;;5034576;28;20120;-75
2021/10/17 10:57:40;;;;;;;3.30;3.00;;;15.60;96.60;;;;;;5052235;28;20025;-75
2021/10/17 11:00:14;;;;;;;3.88;3.50;;;15.70;97.00;;;;;;5052309;28;20021;-75
2021/10/17 11:03:13;;;;;;;6.47;3.40;;;15.80;95.70;;;;;;5053052;28;20025;-75
2021/10/17 11:05:39;;;;;;;4.35;3.05;;;15.90;95.10;;;;;;5034730;28;20537;-75
2021/10/17 11:08:15;;;;;;;3.05;2.75;;;15.90;95.90;;;;;;5053217;28;20818;-75
2021/10/17 11:10:43;;;;;;;5.80;4.13;;;16.00;96.30;;;;;;5053250;28;20382;-75
2021/10/17 11:13:11;;;;;;;4.47;3.30;;;15.90;95.20;;;;;;5050465;28;20059;-75
2021/10/17 11:15:39;;;;;;;3.58;2.95;;;16.00;96.10;;;;;;5052821;28;20021;-75
2021/10/17 11:18:08;;;;;;;4.45;2.78;;;16.00;94.80;;;;;;5035144;28;20028;-75
2021/10/17 11:20:41;;;;;;;3.65;2.30;;;16.10;95.30;;;;;;5053044;28;20055;-75
2021/10/17 11:23:18;;;;;;;5.57;2.85;;;16.10;95.30;;;;;;5053839;28;20461;-75
2021/10/17 11:26:11;;;;;;;3.85;2.42;;;16.00;94.90;;;;;;5032288;28;20040;-75
2021/10/17 11:28:49;;;;;;;2.75;2.55;;;16.00;95.20;;;;;;5049517;28;20041;-74
2021/10/17 11:31:20;;;;;;;2.75;2.40;;;16.00;96.40;;;;;;5054176;28;20028;-75
2021/10/17 11:33:52;;;;;;;2.92;2.72;;;16.10;95.80;;;;;;5053997;28;20437;-75
2021/10/17 11:36:18;;;;;;;3.17;2.97;;;16.30;95.90;;;;;;5036201;28;20021;-75
2021/10/17 11:38:47;;;;;;;4.22;3.35;;;16.20;95.90;;;;;;5054129;28;20068;-75
2021/10/17 11:41:15;;;;;;;3.65;3.33;;;16.30;96.30;;;;;;5053782;28;20440;-75
2021/10/17 11:43:47;;;;;;;3.35;2.83;;;16.30;95.20;;;;;;5034454;28;20108;-75
2021/10/17 11:46:18;;;;;;;3.10;2.75;;;16.30;95.90;;;;;;5051226;28;20017;-75
2021/10/17 11:48:45;;;;;;;4.05;3.30;;;16.20;95.70;;;;;;5050754;28;20021;-75
2021/10/17 11:51:14;;;;;;;3.53;3.22;;;16.30;94.60;;;;;;5051245;28;20036;-75
2021/10/17 11:53:40;;;;;;;2.80;2.50;;;16.30;94.10;;;;;;5033568;28;20032;-75
2021/10/17 11:56:10;;;;;;;4.28;3.20;;;16.40;94.70;;;;;;5047505;28;20029;-75
2021/10/17 11:58:38;;;;;;;3.15;2.85;;;16.40;93.60;;;;;;5051538;28;20025;-75
2021/10/17 12:01:11;;;;;;;3.80;3.08;;;16.40;94.60;;;;;;5051850;28;20029;-75
2021/10/17 12:03:39;;;;;;;5.32;3.33;;;16.40;94.80;;;;;;5051996;28;20020;-75
2021/10/17 12:06:11;;;;;;;5.10;3.25;;;16.50;95.10;;;;;;5051931;28;20025;-75
2021/10/17 12:08:37;;;;;;;6.10;3.35;;;16.50;93.90;;;;;;5051950;28;20440;-75
2021/10/17 12:11:05;;;;;;;6.82;3.78;;;16.50;94.20;;;;;;5051803;28;20103;-75
2021/10/17 12:13:59;;;;;;;4.90;3.30;;;16.50;93.80;;;;;;5053379;28;20041;-75
2021/10/17 12:16:27;;;;;;;4.35;3.47;;;16.50;94.50;;;;;;5050310;28;20044;-75
2021/10/17 12:18:55;;;;;;;6.50;3.22;;;16.50;95.10;;;;;;5053096;28;20021;-75
2021/10/17 12:21:27;;;;;;;3.95;3.58;;;16.50;93.40;;;;;;5053098;28;20033;-75
2021/10/17 12:23:53;;;;;;;;;;;16.60;93.60;;;;;;5035701;28;20551;-75
2021/10/17 12:26:28;;;;;;;4.95;4.07;;;16.60;93.00;;;;;;5052949;28;19904;-75
2021/10/17 12:29:13;;;;;;;4.82;3.70;;;16.50;93.70;;;;;;5052866;28;20033;-75
2021/10/17 12:31:44;;;;;;;5.70;3.97;;;16.60;94.60;;;;;;5052945;28;20046;-75
2021/10/17 12:34:12;;;;;;;7.77;4.73;;;16.60;93.40;;;;;;5034812;28;20029;-75
2021/10/17 12:36:40;;;;;;;3.92;3.42;;;16.60;92.30;;;;;;5034428;28;20017;-75
2021/10/17 12:39:12;;;;;;;4.07;3.78;;;16.50;93.00;;;;;;5051479;28;20028;-75
2021/10/17 12:41:39;;;;;;;4.20;3.60;;;16.40;93.50;;;;;;5052263;28;20108;-75
2021/10/17 12:44:08;;;;;;;5.30;4.28;;;16.50;95.30;;;;;;5054775;28;20023;-75
2021/10/17 12:46:39;;;;;;;5.35;4.40;;;16.50;96.30;;;;;;5052278;28;20529;-75
2021/10/17 12:49:13;;;;;;;6.50;4.53;;;16.60;96.10;;;;;;5053648;28;20074;-84